KUNV/SCE METAR and TAF weather

Enter ICAO airport designator
Station Type Date Time Source
KUNV METAR 2020/09/27 03:15 UTC NOAA

KUNV 270315Z AUTO 00000KT 10SM SCT070 SCT080 15/14 A3001 RMK AO2 T01480142


Station Type Date Time Source
KUNV Decoded METAR 2020/09/27 03:15 UTC NOAA

State College, University Park Airport, PA, United States (KUNV) 40-51N 077-51W
Sep 26, 2020 - 11:15 PM EDT / 2020.09.27 0315 UTC
Wind: Calm:0
Visibility: 10 mile(s):0
Sky conditions: partly cloudy
Temperature: 58.6 F (14.8 C)
Dew Point: 57.6 F (14.2 C)
Relative Humidity: 96%
Pressure (altimeter): 30.01 in. Hg (1016 hPa)
ob: KUNV 270315Z AUTO 00000KT 10SM SCT070 SCT080 15/14 A3001 RMK AO2 T01480142
cycle: 3

Station Type Date Time Source
KUNV TAF 2020/09/27 03:15 UTC NOAA

TAF
AMD KUNV 270313Z 2703/2724 VRB03KT 5SM BR OVC015
FM270500 VRB05KT 5SM BR BKN010
FM270900 VRB03KT 4SM BR OVC005
FM271400 20009KT P6SM BKN035

Example: see airport list